Time;durP1;ratioP1;P1;durP2;ratioP2;P2;SDS_P1;SDS_P2;PMS_P1;PMS_P2;Temp;Humidity;BMP_temperature;BMP_pressure;BME280_temperature;BME280_humidity;BME280_pressure;Samples;Min_cycle;Max_cycle;Signal;HPM_P1;HPM_P2
2021/05/26 00:02:01;;;;;;;20.67;18.50;;;;;;;18.31;65.79;99547.16;5012323;28;20041;-74
2021/05/26 00:04:26;;;;;;;23.73;19.42;;;;;;;18.30;65.57;99549.16;4989430;28;20037;-73
2021/05/26 00:06:52;;;;;;;21.88;18.73;;;;;;;18.31;65.57;99542.28;5013040;28;20037;-73
2021/05/26 00:09:17;;;;;;;23.60;19.25;;;;;;;18.22;65.74;99555.91;5012541;28;20022;-73
2021/05/26 00:11:43;;;;;;;25.70;19.98;;;;;;;18.24;65.69;99553.53;5012827;28;20026;-73
2021/05/26 00:14:09;;;;;;;26.70;20.42;;;;;;;18.23;65.98;99549.09;5012723;28;20022;-73
2021/05/26 00:16:37;;;;;;;28.90;21.08;;;;;;;18.34;65.61;99549.19;5012843;28;20065;-73
2021/05/26 00:19:03;;;;;;;28.55;20.55;;;;;;;18.50;65.17;99546.16;5011713;28;20092;-74
2021/05/26 00:21:30;;;;;;;23.58;19.67;;;;;;;18.42;65.14;99544.44;4988904;28;20121;-73
2021/05/26 00:23:55;;;;;;;21.60;19.30;;;;;;;18.44;65.16;99542.84;4988914;28;20061;-73
2021/05/26 00:26:21;;;;;;;23.30;18.10;;;;;;;18.46;65.18;99537.59;4989005;28;20483;-74
2021/05/26 00:28:47;;;;;;;24.80;18.70;;;;;;;18.52;65.11;99538.91;5011011;28;20033;-73
2021/05/26 00:31:12;;;;;;;26.10;19.98;;;;;;;18.70;64.54;99531.78;5012350;28;20026;-73
2021/05/26 00:33:38;;;;;;;24.65;19.85;;;;;;;18.71;64.73;99533.44;5012443;28;20105;-74
2021/05/26 00:36:04;;;;;;;22.88;18.58;;;;;;;18.80;64.52;99536.72;5012150;28;20021;-73
2021/05/26 00:38:30;;;;;;;24.95;18.63;;;;;;;18.90;64.53;99529.56;4993419;28;20069;-74
2021/05/26 00:40:56;;;;;;;21.02;18.90;;;;;;;18.97;64.17;99529.59;5007568;28;20463;-73
2021/05/26 00:43:21;;;;;;;22.20;19.90;;;;;;;18.71;65.28;99536.25;4994808;28;20030;-73
2021/05/26 00:45:47;;;;;;;24.08;18.98;;;;;;;18.72;65.13;99530.19;5010030;28;20037;-73
2021/05/26 00:48:13;;;;;;;24.00;19.48;;;;;;;18.72;65.28;99524.53;5010512;28;20411;-73
2021/05/26 00:50:40;;;;;;;24.38;19.27;;;;;;;18.77;65.21;99527.00;4994422;28;20057;-73
2021/05/26 00:53:08;;;;;;;21.98;19.83;;;;;;;18.70;65.52;99524.09;5011870;28;20049;-74
2021/05/26 00:55:35;;;;;;;26.52;20.63;;;;;;;18.83;65.33;99521.81;4994415;28;20077;-73
2021/05/26 00:58:01;;;;;;;25.17;18.77;;;;;;;18.87;64.94;99524.66;5011780;28;20061;-73
2021/05/26 01:00:29;;;;;;;23.25;20.40;;;;;;;18.85;64.98;99527.91;5011979;28;20108;-73
2021/05/26 01:02:55;;;;;;;23.90;20.67;;;;;;;18.73;65.27;99525.34;4993967;28;20026;-73
2021/05/26 01:05:22;;;;;;;22.40;19.77;;;;;;;18.70;65.57;99520.44;4993514;28;20506;-74
2021/05/26 01:07:48;;;;;;;25.13;19.38;;;;;;;18.74;65.50;99521.31;5012196;28;20046;-74
2021/05/26 01:10:17;;;;;;;22.60;20.33;;;;;;;18.73;65.61;99531.00;5011798;28;20074;-73
2021/05/26 01:12:44;;;;;;;22.58;20.25;;;;;;;18.77;65.43;99523.34;5010977;28;20022;-73
2021/05/26 01:15:12;;;;;;;24.27;20.48;;;;;;;18.76;65.37;99525.38;4997364;28;20113;-73
2021/05/26 01:17:37;;;;;;;23.45;19.90;;;;;;;18.80;65.77;99525.41;4993885;28;20033;-73
2021/05/26 01:20:06;;;;;;;22.77;19.85;;;;;;;18.80;65.40;99526.22;5011008;28;20069;-74
2021/05/26 01:22:32;;;;;;;23.30;20.95;;;;;;;18.73;66.07;99531.00;5010189;28;20030;-73
2021/05/26 01:24:57;;;;;;;25.08;21.38;;;;;;;18.67;66.07;99527.72;5011322;28;20038;-73
2021/05/26 01:27:23;;;;;;;21.25;19.08;;;;;;;18.70;65.90;99523.28;4993694;28;20073;-74
2021/05/26 01:29:49;;;;;;;22.88;20.52;;;;;;;18.74;65.87;99524.16;5011330;28;20026;-73
2021/05/26 01:32:15;;;;;;;27.33;20.55;;;;;;;18.78;65.69;99525.81;5010546;28;20483;-73
2021/05/26 01:34:41;;;;;;;22.70;19.58;;;;;;;18.75;65.79;99523.72;4993637;28;20113;-74
2021/05/26 01:37:07;;;;;;;25.20;20.05;;;;;;;18.75;65.60;99525.78;5001764;28;20495;-73
2021/05/26 01:39:32;;;;;;;27.55;21.33;;;;;;;18.61;65.91;99521.59;5011222;28;20042;-74
2021/05/26 01:41:58;;;;;;;26.83;21.70;;;;;;;18.51;66.46;99531.59;5010295;28;20458;-73
2021/05/26 01:44:27;;;;;;;23.63;21.10;;;;;;;18.50;66.49;99526.31;4985573;28;20034;-73
2021/05/26 01:46:53;;;;;;;30.25;22.60;;;;;;;18.60;66.03;99522.81;5007522;28;20121;-73
2021/05/26 01:49:18;;;;;;;25.67;22.98;;;;;;;18.49;66.16;99533.19;5010125;28;20134;-73
2021/05/26 01:51:44;;;;;;;27.13;24.42;;;;;;;18.49;66.10;99531.16;4996137;28;20112;-73
2021/05/26 01:54:10;;;;;;;26.75;23.23;;;;;;;18.49;65.97;99522.66;5010965;28;20100;-73
2021/05/26 01:56:36;;;;;;;27.10;22.33;;;;;;;18.52;65.71;99527.56;5010817;28;20430;-73
2021/05/26 01:59:02;;;;;;;31.48;22.38;;;;;;;18.35;66.13;99529.00;5009987;28;20053;-73
2021/05/26 02:01:27;;;;;;;26.98;22.48;;;;;;;18.42;66.08;99527.44;4993289;28;20029;-73
2021/05/26 02:03:54;;;;;;;29.73;23.30;;;;;;;18.40;65.93;99536.31;4993187;28;20026;-73
2021/05/26 02:06:21;;;;;;;29.98;23.10;;;;;;;18.47;65.52;99530.75;4989438;28;20555;-73
2021/05/26 02:08:50;;;;;;;23.95;21.45;;;;;;;18.31;65.45;99533.78;5010057;28;20074;-73
2021/05/26 02:14:06;;;;;;;26.92;21.55;;;;;;;18.35;64.90;99522.50;5005736;28;19933;-73
2021/05/26 02:16:33;;;;;;;29.88;21.92;;;;;;;18.27;64.81;99532.13;5010252;28;20034;-73
2021/05/26 02:18:59;;;;;;;32.20;22.27;;;;;;;18.25;64.85;99538.19;5010467;28;20042;-73
2021/05/26 02:21:25;;;;;;;30.95;23.02;;;;;;;18.17;65.09;99539.28;4984479;28;20026;-73
2021/05/26 02:23:50;;;;;;;28.05;21.67;;;;;;;18.23;65.05;99546.25;5010577;28;20036;-73
2021/05/26 02:26:16;;;;;;;33.30;24.02;;;;;;;18.00;65.96;99549.97;4989909;28;20132;-73
2021/05/26 02:28:42;;;;;;;33.85;23.45;;;;;;;17.95;66.32;99548.28;4992772;28;20037;-73
2021/05/26 02:31:08;;;;;;;29.17;22.15;;;;;;;17.87;66.31;99543.72;5010404;28;20033;-73
2021/05/26 02:33:34;;;;;;;28.35;21.90;;;;;;;17.93;65.43;99541.38;4984496;28;20140;-73
2021/05/26 02:35:59;;;;;;;30.83;23.30;;;;;;;17.89;65.73;99551.84;4993630;28;20125;-73
2021/05/26 02:38:25;;;;;;;32.25;23.70;;;;;;;17.80;66.10;99555.75;5010201;28;20587;-73
2021/05/26 02:40:50;;;;;;;26.13;22.10;;;;;;;17.71;66.13;99549.56;5010655;28;20058;-73
2021/05/26 02:43:16;;;;;;;28.75;23.13;;;;;;;17.66;66.34;99555.56;4984304;28;20060;-73
2021/05/26 02:45:41;;;;;;;35.95;25.45;;;;;;;17.58;66.67;99562.28;4991366;28;20038;-73
2021/05/26 02:48:07;;;;;;;35.08;25.20;;;;;;;17.72;66.05;99559.66;5010042;28;20466;-73
2021/05/26 02:50:33;;;;;;;29.60;25.10;;;;;;;17.82;65.80;99559.00;4984937;28;20022;-73
2021/05/26 02:52:58;;;;;;;33.53;26.55;;;;;;;17.76;66.05;99552.06;5013786;28;20040;-73
2021/05/26 02:55:25;;;;;;;39.55;27.33;;;;;;;17.77;66.23;99555.69;5014060;28;20033;-73
2021/05/26 02:57:50;;;;;;;63.15;28.73;;;;;;;17.92;65.92;99559.56;5014582;28;20054;-74
2021/05/26 03:00:18;;;;;;;38.13;26.70;;;;;;;17.82;66.22;99559.00;4996763;28;20123;-73
2021/05/26 03:02:45;;;;;;;38.22;26.55;;;;;;;17.91;66.17;99569.25;5012135;28;20026;-73
2021/05/26 03:05:11;;;;;;;31.88;25.48;;;;;;;18.12;65.63;99560.25;4996439;28;20060;-73
2021/05/26 03:07:38;;;;;;;37.35;24.55;;;;;;;18.22;64.87;99561.56;4993009;28;20065;-73
2021/05/26 03:10:06;;;;;;;27.98;22.67;;;;;;;18.13;64.60;99561.88;5014256;28;20088;-74
2021/05/26 03:12:31;;;;;;;30.23;23.92;;;;;;;18.09;65.75;99567.47;5013315;28;20465;-73
2021/05/26 03:14:57;;;;;;;30.25;22.35;;;;;;;17.81;66.83;99567.91;4994839;28;20030;-73
2021/05/26 03:17:28;;;;;;;29.67;23.90;;;;;;;17.45;68.20;99568.16;5014055;28;20037;-74
2021/05/26 03:19:54;;;;;;;38.47;23.35;;;;;;;17.40;68.73;99571.31;4996341;28;20029;-73
2021/05/26 03:22:22;;;;;;;37.05;26.30;;;;;;;17.42;68.64;99571.75;5012321;28;20038;-73
2021/05/26 03:24:48;;;;;;;26.35;21.52;;;;;;;17.34;69.18;99567.16;4996447;28;20065;-73
2021/05/26 03:27:14;;;;;;;27.17;19.95;;;;;;;17.20;69.81;99570.59;4986972;28;20030;-73
2021/05/26 03:29:40;;;;;;;27.15;20.13;;;;;;;17.01;70.47;99571.47;4992256;28;20105;-73
2021/05/26 03:32:05;;;;;;;25.13;19.88;;;;;;;17.12;70.18;99572.47;5013776;28;20036;-73
2021/05/26 03:34:31;;;;;;;25.63;20.65;;;;;;;17.04;70.27;99565.06;4982928;28;20030;-74
2021/05/26 03:36:57;;;;;;;27.52;20.92;;;;;;;17.08;70.08;99565.94;5013799;28;20026;-73
2021/05/26 03:39:22;;;;;;;30.08;20.08;;;;;;;17.14;69.79;99570.09;5012934;28;20105;-73
2021/05/26 03:41:48;;;;;;;32.22;19.95;;;;;;;17.18;69.77;99570.13;5013273;28;20065;-73
2021/05/26 03:44:13;;;;;;;24.50;20.73;;;;;;;17.16;69.59;99578.19;4995957;28;20021;-73
2021/05/26 03:46:39;;;;;;;25.90;21.17;;;;;;;17.12;69.54;99578.94;5013372;28;20026;-73
2021/05/26 03:49:05;;;;;;;27.85;19.75;;;;;;;16.98;70.27;99585.13;5012297;28;20084;-69
2021/05/26 03:51:31;;;;;;;21.85;19.63;;;;;;;17.08;70.10;99589.38;4995588;28;20061;-72
2021/05/26 03:53:56;;;;;;;26.33;21.10;;;;;;;17.17;70.20;99591.94;5013029;28;20104;-72
2021/05/26 03:56:22;;;;;;;111.15;53.92;;;;;;;17.16;70.13;99590.31;4995335;28;20233;-74
2021/05/26 03:58:48;;;;;;;30.95;26.05;;;;;;;17.14;69.84;99586.22;4996243;28;20503;-74
2021/05/26 04:01:14;;;;;;;35.15;24.10;;;;;;;16.95;70.85;99591.53;5013210;28;20041;-70
2021/05/26 04:03:39;;;;;;;33.90;23.83;;;;;;;17.13;70.61;99593.88;5011944;28;20089;-71
2021/05/26 04:06:05;;;;;;;27.25;23.35;;;;;;;17.17;70.25;99589.13;5012252;28;20037;-70
2021/05/26 04:08:31;;;;;;;26.85;23.13;;;;;;;17.24;70.27;99594.88;5003268;28;20146;-70
2021/05/26 04:10:56;;;;;;;35.78;23.70;;;;;;;17.31;70.03;99594.19;5012669;28;20046;-69
2021/05/26 04:13:22;;;;;;;27.02;22.90;;;;;;;17.37;70.51;99600.34;5012862;28;20107;-70
2021/05/26 04:15:47;;;;;;;23.90;21.38;;;;;;;17.39;70.45;99603.63;5011676;28;20407;-71
2021/05/26 04:18:13;;;;;;;28.58;20.80;;;;;;;17.39;70.37;99604.41;4994974;28;20484;-71
2021/05/26 04:20:38;;;;;;;22.80;20.58;;;;;;;17.50;70.04;99601.78;4994324;28;20030;-70
2021/05/26 04:23:05;;;;;;;26.85;20.50;;;;;;;17.60;70.32;99596.66;5011357;28;20120;-71
2021/05/26 04:25:31;;;;;;;22.52;20.10;;;;;;;17.57;70.33;99601.09;4992003;28;20515;-71
2021/05/26 04:27:56;;;;;;;23.05;19.38;;;;;;;17.57;70.79;99589.78;5010611;28;20259;-70
2021/05/26 04:30:22;;;;;;;31.50;22.80;;;;;;;17.76;70.16;99608.66;4992871;28;20572;-71
2021/05/26 04:32:47;;;;;;;22.65;20.00;;;;;;;17.77;70.41;99612.28;5010735;28;20065;-70
2021/05/26 04:35:14;;;;;;;26.20;21.02;;;;;;;17.89;70.15;99609.22;5010831;28;20033;-71
2021/05/26 04:37:39;;;;;;;25.17;21.02;;;;;;;17.94;70.13;99611.75;4995075;28;20415;-70
2021/05/26 04:40:06;;;;;;;21.65;18.88;;;;;;;17.94;70.42;99616.56;4978346;28;20033;-72
2021/05/26 04:42:31;;;;;;;21.67;19.42;;;;;;;17.99;70.33;99612.59;5002190;28;20026;-71
2021/05/26 04:44:57;;;;;;;20.33;18.40;;;;;;;18.07;70.23;99622.88;5010154;28;20036;-79
2021/05/26 04:47:22;;;;;;;20.08;16.75;;;;;;;18.06;69.71;99619.19;5011010;28;20045;-85
2021/05/26 04:49:48;;;;;;;26.00;18.60;;;;;;;18.17;70.04;99624.19;5011837;28;20500;-77
2021/05/26 04:52:13;;;;;;;21.20;19.02;;;;;;;18.21;69.71;99625.06;4995797;28;20041;-76
2021/05/26 04:54:39;;;;;;;18.60;16.70;;;;;;;18.36;68.88;99624.06;4994311;28;20507;-76
2021/05/26 04:57:05;;;;;;;19.15;16.88;;;;;;;18.41;68.68;99634.25;5011577;28;20069;-77
2021/05/26 04:59:30;;;;;;;20.17;16.75;;;;;;;18.56;68.25;99635.22;4994097;28;20105;-77
2021/05/26 05:01:56;;;;;;;18.92;16.83;;;;;;;18.45;67.80;99637.94;5010957;28;20038;-76
2021/05/26 05:04:21;;;;;;;20.88;16.52;;;;;;;18.70;66.98;99636.59;4994162;28;20014;-76
2021/05/26 05:06:47;;;;;;;17.70;15.80;;;;;;;18.77;66.63;99642.34;5011688;28;20038;-76
2021/05/26 05:09:13;;;;;;;20.52;17.70;;;;;;;18.63;67.35;99635.31;4993113;28;20398;-76
2021/05/26 05:11:39;;;;;;;20.73;17.60;;;;;;;18.66;67.60;99634.53;5011430;28;20037;-77
2021/05/26 05:14:05;;;;;;;25.85;17.50;;;;;;;18.76;67.30;99637.88;4982492;28;20408;-77
2021/05/26 05:16:32;;;;;;;28.30;18.48;;;;;;;19.02;66.90;99645.50;5011537;28;20041;-76
2021/05/26 05:18:58;;;;;;;23.55;16.08;;;;;;;19.08;66.29;99643.94;5011253;28;20395;-76
2021/05/26 05:21:23;;;;;;;20.40;17.50;;;;;;;19.33;65.96;99643.34;5011620;28;20033;-77
2021/05/26 05:23:49;;;;;;;22.38;19.95;;;;;;;19.40;65.92;99639.78;5011656;28;20018;-77
2021/05/26 05:26:14;;;;;;;24.10;17.55;;;;;;;19.63;64.72;99638.75;5011412;28;20037;-77
2021/05/26 05:28:40;;;;;;;19.98;17.77;;;;;;;19.81;65.05;99632.41;5010989;28;20195;-77
2021/05/26 05:31:05;;;;;;;21.35;18.25;;;;;;;19.91;64.96;99634.50;5011156;28;20534;-77
2021/05/26 05:33:31;;;;;;;20.33;17.95;;;;;;;20.13;63.82;99638.31;5011477;28;20034;-77
2021/05/26 05:35:56;;;;;;;20.50;16.25;;;;;;;20.29;63.23;99632.34;5011319;28;20041;-78
2021/05/26 05:38:22;;;;;;;25.17;17.92;;;;;;;20.50;62.85;99630.00;5010475;28;20032;-77
2021/05/26 05:40:48;;;;;;;26.23;17.02;;;;;;;20.65;62.41;99640.19;5011377;28;20079;-77
2021/05/26 05:43:14;;;;;;;17.25;15.55;;;;;;;20.83;61.68;99634.59;5011193;28;20032;-77
2021/05/26 05:45:40;;;;;;;19.52;15.38;;;;;;;20.92;61.38;99631.38;4993084;28;20022;-77
2021/05/26 05:48:07;;;;;;;17.58;15.88;;;;;;;20.99;61.01;99628.56;4993784;28;20026;-77
2021/05/26 05:50:32;;;;;;;26.17;16.90;;;;;;;21.25;60.83;99640.78;4993109;28;20044;-78
2021/05/26 05:52:58;;;;;;;17.83;15.95;;;;;;;21.42;59.65;99644.84;5010968;28;20026;-73
2021/05/26 05:55:24;;;;;;;19.77;15.27;;;;;;;21.51;59.05;99641.59;5009829;28;20105;-77
2021/05/26 05:57:49;;;;;;;21.05;16.88;;;;;;;21.58;59.24;99637.94;4993325;28;20129;-76
2021/05/26 06:00:15;;;;;;;22.02;16.10;;;;;;;21.69;58.64;99635.94;4993291;28;20026;-77
2021/05/26 06:02:41;;;;;;;16.88;14.85;;;;;;;21.73;58.77;99630.25;4988826;28;20084;-78
2021/05/26 06:05:08;;;;;;;20.00;15.68;;;;;;;21.84;58.26;99633.06;5010238;28;20038;-78
2021/05/26 06:07:33;;;;;;;16.88;15.07;;;;;;;21.96;58.27;99626.16;5011024;28;20037;-78
2021/05/26 06:09:59;;;;;;;19.98;14.00;;;;;;;22.10;57.09;99625.31;5011140;28;20029;-77
2021/05/26 06:12:25;;;;;;;22.90;15.27;;;;;;;22.24;56.48;99630.97;4980053;28;20045;-77
2021/05/26 06:14:50;;;;;;;19.40;14.95;;;;;;;22.34;55.89;99625.66;5010032;28;20029;-79
2021/05/26 06:17:16;;;;;;;26.23;15.90;;;;;;;22.34;56.36;99629.31;5011137;28;20548;-79
2021/05/26 06:19:42;;;;;;;21.70;16.15;;;;;;;22.35;56.91;99633.00;5010586;28;20025;-78
2021/05/26 06:22:07;;;;;;;18.83;16.05;;;;;;;22.42;56.30;99622.38;4992854;28;20045;-77
2021/05/26 06:24:33;;;;;;;24.88;14.93;;;;;;;22.52;56.30;99617.88;5010401;28;20033;-78
2021/05/26 06:26:59;;;;;;;19.52;15.20;;;;;;;22.68;55.87;99614.56;4979286;28;20030;-81
2021/05/26 06:29:25;;;;;;;16.75;15.13;;;;;;;22.77;54.54;99619.00;4995597;28;20030;-78
2021/05/26 06:31:51;;;;;;;25.27;14.77;;;;;;;22.82;55.05;99612.84;4989488;28;20039;-80
2021/05/26 06:34:16;;;;;;;19.05;15.20;;;;;;;22.87;55.23;99618.13;4993396;28;20065;-81
2021/05/26 06:36:42;;;;;;;22.67;15.35;;;;;;;22.91;55.21;99613.22;4975264;28;20045;-75
2021/05/26 06:39:07;;;;;;;20.58;15.57;;;;;;;23.05;55.08;99615.16;5002165;28;20416;-73
2021/05/26 06:41:33;;;;;;;18.02;14.18;;;;;;;23.23;54.89;99617.06;5009220;28;20022;-75
2021/05/26 06:43:59;;;;;;;25.98;16.80;;;;;;;23.39;54.06;99611.66;5010296;28;20033;-73
2021/05/26 06:46:24;;;;;;;24.95;16.10;;;;;;;23.52;53.07;99611.16;5009426;28;20618;-76
2021/05/26 06:48:53;;;;;;;26.90;16.00;;;;;;;23.50;54.23;99608.75;5010119;28;20066;-75
2021/05/26 06:51:20;;;;;;;22.77;14.90;;;;;;;23.59;54.93;99611.09;5008049;28;20029;-74
2021/05/26 06:53:46;;;;;;;16.77;14.75;;;;;;;23.74;54.89;99610.97;4990680;28;20492;-79
2021/05/26 06:56:11;;;;;;;18.98;14.48;;;;;;;23.69;53.76;99603.66;4976134;28;20068;-75
2021/05/26 06:58:39;;;;;;;19.10;14.50;;;;;;;23.99;52.71;99605.03;5009192;28;20523;-76
2021/05/26 07:01:04;;;;;;;18.25;12.65;;;;;;;24.08;51.21;99604.53;4994919;28;20450;-75
2021/05/26 07:03:30;;;;;;;18.13;14.32;;;;;;;23.86;51.88;99595.38;4992790;28;20180;-78
2021/05/26 07:05:55;;;;;;;15.35;13.77;;;;;;;23.89;52.51;99595.34;5007172;28;20488;-76
2021/05/26 07:08:21;;;;;;;21.60;16.10;;;;;;;23.95;53.47;99599.34;5008766;28;20022;-75
2021/05/26 07:10:47;;;;;;;20.58;16.20;;;;;;;23.94;53.62;99597.72;4992481;28;20049;-75
2021/05/26 07:13:13;;;;;;;19.98;14.77;;;;;;;24.13;51.93;99594.69;4992548;28;20466;-75
2021/05/26 07:15:39;;;;;;;21.73;14.80;;;;;;;24.05;52.06;99596.81;5010300;28;20018;-73
2021/05/26 07:18:06;;;;;;;18.08;14.23;;;;;;;24.14;51.90;99590.59;4994900;28;20033;-74
2021/05/26 07:20:32;;;;;;;18.80;14.38;;;;;;;24.19;51.35;99590.94;5010130;28;20502;-71
2021/05/26 07:22:58;;;;;;;21.98;16.05;;;;;;;24.29;52.36;99585.53;5009973;28;20038;-80
2021/05/26 07:25:23;;;;;;;24.50;16.23;;;;;;;24.20;51.74;99586.84;4986586;28;20582;-76
2021/05/26 07:27:49;;;;;;;27.70;15.80;;;;;;;24.30;51.79;99578.59;5003801;28;20026;-77
2021/05/26 07:30:16;;;;;;;20.95;16.27;;;;;;;24.54;50.96;99580.31;5009407;28;20084;-72
2021/05/26 07:32:42;;;;;;;22.10;15.50;;;;;;;24.60;50.71;99574.09;5009695;28;20053;-74
2021/05/26 07:35:08;;;;;;;15.43;13.93;;;;;;;24.67;49.80;99574.00;4991530;28;20503;-74
2021/05/26 07:37:33;;;;;;;21.77;13.27;;;;;;;24.83;50.61;99579.13;5011437;28;20483;-73
2021/05/26 07:39:59;;;;;;;18.50;14.43;;;;;;;24.92;50.15;99579.41;4995286;28;20033;-76
2021/05/26 07:42:24;;;;;;;12.80;11.63;;;;;;;24.65;50.01;99577.28;5000272;28;20044;-77
2021/05/26 07:44:50;;;;;;;19.52;13.20;;;;;;;24.77;51.29;99580.84;5019655;28;20401;-76
2021/05/26 07:47:16;;;;;;;16.00;12.75;;;;;;;25.03;49.09;99569.84;4995617;28;20123;-77
2021/05/26 07:49:41;;;;;;;13.85;12.45;;;;;;;25.11;49.46;99577.06;4997051;28;20049;-73
2021/05/26 07:52:09;;;;;;;27.27;12.63;;;;;;;25.12;49.32;99577.91;4995151;28;20033;-75
2021/05/26 07:54:35;;;;;;;17.75;12.48;;;;;;;24.97;49.53;99574.44;4989828;28;20045;-73
2021/05/26 07:57:01;;;;;;;15.38;12.38;;;;;;;25.09;49.33;99571.78;5001801;28;20030;-71
2021/05/26 07:59:27;;;;;;;14.15;12.65;;;;;;;25.28;49.19;99569.44;5012607;28;20069;-76
2021/05/26 08:01:53;;;;;;;16.52;12.02;;;;;;;25.50;48.00;99567.03;5013296;28;20061;-75
2021/05/26 08:04:19;;;;;;;15.40;12.45;;;;;;;25.40;48.10;99568.03;5011973;28;20419;-74
2021/05/26 08:06:45;;;;;;;14.80;12.07;;;;;;;25.56;48.37;99566.56;4995185;28;20462;-75
2021/05/26 08:09:11;;;;;;;16.90;12.73;;;;;;;25.54;48.18;99572.72;5012403;28;20076;-75
2021/05/26 08:11:36;;;;;;;25.63;13.43;;;;;;;25.72;47.36;99565.88;4994538;28;20061;-75
2021/05/26 08:14:02;;;;;;;20.65;12.80;;;;;;;25.70;48.79;99572.03;5010694;28;20026;-75
2021/05/26 08:16:28;;;;;;;22.10;13.35;;;;;;;25.90;47.43;99566.31;5012111;28;20080;-75
2021/05/26 08:18:53;;;;;;;24.10;13.38;;;;;;;25.76;49.39;99578.06;5012280;28;20025;-73
2021/05/26 08:21:19;;;;;;;17.27;13.18;;;;;;;26.11;48.32;99570.03;5009816;28;20117;-73
2021/05/26 08:23:45;;;;;;;16.23;12.13;;;;;;;26.43;46.40;99562.03;4992261;28;20038;-71
2021/05/26 08:26:17;;;;;;;14.55;12.60;;;;;;;26.61;46.25;99561.63;5009341;28;20409;-71
2021/05/26 08:28:43;;;;;;;13.00;11.60;;;;;;;26.60;44.84;99560.81;5009394;28;20164;-76
2021/05/26 08:31:10;;;;;;;13.90;12.60;;;;;;;26.65;45.51;99561.56;5009210;28;20037;-78
2021/05/26 08:33:36;;;;;;;24.80;12.85;;;;;;;26.84;44.94;99557.03;5010390;28;20100;-71
2021/05/26 08:36:02;;;;;;;14.45;11.45;;;;;;;26.95;44.49;99551.88;4992526;28;20132;-71
2021/05/26 08:38:27;;;;;;;21.90;12.55;;;;;;;27.14;43.39;99555.09;5010698;28;20385;-72
2021/05/26 08:40:54;;;;;;;15.60;11.43;;;;;;;26.84;44.04;99557.03;5010804;28;20038;-71
2021/05/26 08:43:23;;;;;;;20.40;12.85;;;;;;;26.68;44.53;99552.88;5010942;28;20098;-77
2021/05/26 08:45:48;;;;;;;13.35;11.93;;;;;;;26.70;44.19;99553.25;5012069;28;20018;-77
2021/05/26 08:48:17;;;;;;;13.85;12.40;;;;;;;26.73;46.35;99548.69;4994169;28;20052;-77
2021/05/26 08:50:45;;;;;;;20.45;11.80;;;;;;;27.05;45.55;99542.22;4994092;28;20037;-71
2021/05/26 08:53:11;;;;;;;16.92;11.10;;;;;;;27.14;45.28;99535.03;5011703;28;20026;-70
2021/05/26 08:55:36;;;;;;;14.07;11.95;;;;;;;27.14;45.08;99544.44;5011796;28;20029;-78
2021/05/26 08:58:02;;;;;;;21.48;12.75;;;;;;;27.47;43.73;99538.69;5011049;28;20066;-71
2021/05/26 09:00:28;;;;;;;27.00;14.75;;;;;;;27.04;45.27;99539.78;5011721;28;20030;-75
2021/05/26 09:02:55;;;;;;;15.15;13.55;;;;;;;27.46;44.27;99533.41;4993848;28;20085;-75
2021/05/26 09:05:26;;;;;;;17.20;11.98;;;;;;;27.30;44.24;99537.91;5011279;28;20053;-70
2021/05/26 09:07:52;;;;;;;19.35;12.55;;;;;;;27.71;42.77;99534.81;5011329;28;20057;-75
2021/05/26 09:10:18;;;;;;;15.35;11.68;;;;;;;28.05;42.93;99544.16;4993868;28;20037;-76
2021/05/26 09:12:44;;;;;;;15.18;11.48;;;;;;;28.23;40.40;99537.91;4993823;28;20033;-76
2021/05/26 09:15:16;;;;;;;12.32;11.20;;;;;;;27.50;42.29;99528.34;5010388;28;20044;-73
2021/05/26 09:18:07;;;;;;;16.17;12.35;;;;;;;27.81;43.67;99530.84;4995607;28;20116;-70
2021/05/26 09:20:33;;;;;;;15.98;12.30;;;;;;;27.96;43.36;99534.13;4989863;28;20503;-72
2021/05/26 09:23:09;;;;;;;19.10;10.82;;;;;;;27.83;43.27;99539.81;5011189;28;20080;-73
2021/05/26 09:25:50;;;;;;;17.40;11.65;;;;;;;27.98;43.17;99536.53;5010841;28;20104;-77
2021/05/26 09:28:34;;;;;;;12.70;11.02;;;;;;;28.21;41.98;99521.13;5011057;28;20045;-74
2021/05/26 09:31:05;;;;;;;12.88;11.48;;;;;;;28.10;42.05;99523.47;4993497;28;20088;-75
2021/05/26 09:33:40;;;;;;;17.00;11.13;;;;;;;28.45;42.40;99515.09;4993299;28;20052;-75
2021/05/26 09:36:12;;;;;;;12.57;11.32;;;;;;;28.68;42.21;99501.63;4993294;28;20471;-75
2021/05/26 09:38:37;;;;;;;19.63;10.45;;;;;;;29.00;39.58;99502.69;5010961;28;20046;-74
2021/05/26 09:41:24;;;;;;;14.55;10.20;;;;;;;28.67;40.94;99506.56;5011018;28;20168;-81
2021/05/26 09:43:53;;;;;;;16.63;9.93;;;;;;;28.58;41.70;99504.38;5010338;28;20030;-75
2021/05/26 09:46:24;;;;;;;21.17;10.55;;;;;;;28.45;41.98;99515.88;4993420;28;20042;-80
2021/05/26 09:48:59;;;;;;;14.13;9.90;;;;;;;28.68;40.99;99501.63;5110512;23;20063;-75
2021/05/26 09:51:30;;;;;;;14.10;10.45;;;;;;;29.16;40.10;99504.63;4950389;28;20070;-76
2021/05/26 09:54:18;;;;;;;14.63;9.57;;;;;;;28.91;40.42;99500.50;4940200;28;20028;-76
2021/05/26 09:56:45;;;;;;;12.52;9.55;;;;;;;28.82;40.70;99492.56;4950307;28;20035;-77
2021/05/26 09:59:12;;;;;;;11.00;9.05;;;;;;;29.07;39.79;99495.88;4951072;28;20059;-76
2021/05/26 10:01:39;;;;;;;9.90;8.95;;;;;;;29.18;39.77;99498.41;4965891;28;20038;-77
2021/05/26 10:04:04;;;;;;;10.43;9.43;;;;;;;28.83;40.58;99487.59;4951736;28;20093;-76
2021/05/26 10:06:31;;;;;;;10.93;9.77;;;;;;;29.22;38.32;99473.97;4948347;28;20031;-76
2021/05/26 10:08:57;;;;;;;12.73;8.88;;;;;;;29.36;38.16;99471.88;4950387;28;20126;-76
2021/05/26 10:11:26;;;;;;;14.57;9.48;;;;;;;29.08;40.01;99475.25;4949223;28;20564;-76
2021/05/26 10:13:52;;;;;;;14.38;9.20;;;;;;;28.67;41.45;99472.06;4950491;28;20488;-76
2021/05/26 10:16:19;;;;;;;12.68;9.55;;;;;;;28.59;41.54;99462.84;4949287;28;20117;-76
2021/05/26 10:18:49;;;;;;;16.40;10.32;;;;;;;28.98;40.99;99459.16;4950359;28;20030;-76
2021/05/26 10:21:16;;;;;;;14.85;10.93;;;;;;;29.17;40.47;99459.38;4952056;28;20058;-76
2021/05/26 10:23:42;;;;;;;11.27;9.00;;;;;;;28.86;40.32;99466.56;4951879;28;20031;-77
2021/05/26 10:26:08;;;;;;;19.88;9.88;;;;;;;28.72;40.44;99459.16;4950642;28;20126;-76
2021/05/26 10:28:33;;;;;;;11.13;9.55;;;;;;;28.71;41.13;99464.09;4950633;28;20110;-76
2021/05/26 10:31:06;;;;;;;12.80;9.80;;;;;;;28.47;40.93;99459.97;4951796;28;20031;-77
2021/05/26 10:33:57;;;;;;;17.25;10.90;;;;;;;28.33;40.53;99458.34;4950551;28;20034;-75
2021/05/26 10:36:24;;;;;;;13.63;10.85;;;;;;;28.39;41.61;99454.44;4934930;28;20052;-76
2021/05/26 10:38:58;;;;;;;16.80;10.50;;;;;;;28.51;41.44;99452.03;4946047;28;20039;-76
2021/05/26 10:41:25;;;;;;;12.63;10.27;;;;;;;28.38;40.59;99444.22;4950348;28;20023;-76
2021/05/26 10:43:52;;;;;;;17.02;10.73;;;;;;;28.38;42.13;99447.09;4951601;28;20122;-76
2021/05/26 10:46:37;;;;;;;15.70;11.00;;;;;;;28.51;40.92;99443.41;4951654;28;20046;-76
2021/05/26 10:49:08;;;;;;;15.35;11.05;;;;;;;28.58;41.47;99435.34;4950938;28;20520;-76
2021/05/26 10:51:51;;;;;;;17.35;11.27;;;;;;;28.32;42.41;99433.75;4950157;28;20102;-77
2021/05/26 10:54:38;;;;;;;17.08;11.63;;;;;;;28.39;40.73;99428.56;4951617;28;20512;-77
2021/05/26 10:57:06;;;;;;;14.02;12.35;;;;;;;28.22;42.03;99421.31;4949236;28;20039;-77
2021/05/26 10:59:32;;;;;;;19.75;11.70;;;;;;;28.43;41.66;99420.63;4949720;28;20505;-77
2021/05/26 11:02:08;;;;;;;16.63;12.82;;;;;;;28.76;41.50;99419.56;4949383;28;20054;-77
2021/05/26 11:04:35;;;;;;;12.88;11.55;;;;;;;29.10;41.13;99417.25;4948869;28;20035;-77
2021/05/26 11:07:29;;;;;;;20.05;12.60;;;;;;;28.75;42.04;99417.94;4949470;28;20123;-81
2021/05/26 11:09:56;;;;;;;19.27;11.48;;;;;;;28.82;40.88;99417.75;4948613;28;20043;-79
2021/05/26 11:12:22;;;;;;;14.55;11.60;;;;;;;28.64;41.73;99415.44;4944892;28;20093;-84
2021/05/26 11:14:54;;;;;;;17.27;12.15;;;;;;;28.71;41.78;99411.53;4948498;28;20061;-81
2021/05/26 11:17:26;;;;;;;12.50;11.20;;;;;;;28.56;41.82;99406.25;4953853;28;20027;-83
2021/05/26 11:20:14;;;;;;;14.02;10.77;;;;;;;28.25;41.70;99403.16;4946647;28;20039;-81